Time;durP1;ratioP1;P1;durP2;ratioP2;P2;SDS_P1;SDS_P2;PMS_P1;PMS_P2;Temp;Humidity;BMP_temperature;BMP_pressure;BME280_temperature;BME280_humidity;BME280_pressure;Samples;Min_cycle;Max_cycle;Signal;HPM_P1;HPM_P2
2023/02/21 02:14:35;;;;;;;5.32;4.82;;;;;;;;;;4495938;28;20042;-57
2023/02/21 02:16:50;;;;;;;5.63;5.03;;;;;;;;;;4482168;28;20039;-57
2023/02/21 02:19:12;;;;;;;4.88;4.38;;;;;;;;;;4480569;28;20041;-57
2023/02/21 02:21:47;;;;;;;1.65;1.55;;;;;;;;;;4497892;28;20593;-56
2023/02/21 02:24:07;;;;;;;1.75;1.38;;;;;;;;;;4481527;28;20069;-57
2023/02/21 02:26:20;;;;;;;1.50;1.40;;;;;;;;;;4495593;28;20038;-57
2023/02/21 02:28:39;;;;;;;1.52;1.42;;;;;;;;;;4481770;28;20022;-57
2023/02/21 02:30:52;;;;;;;1.77;1.67;;;;;;;;;;4483028;28;20612;-56
2023/02/21 02:33:15;;;;;;;1.40;1.30;;;;;;;;;;4496761;28;20056;-56
2023/02/21 02:35:38;;;;;;;1.80;1.50;;;;;;;;;;4481247;28;20738;-56
2023/02/21 02:37:52;;;;;;;1.48;1.38;;;;;;;;;;4494673;28;20105;-56
2023/02/21 02:40:23;;;;;;;1.38;1.27;;;;;;;;;;4480398;28;20046;-57
2023/02/21 02:42:40;;;;;;;2.35;2.10;;;;;;;;;;4480342;28;20361;-56
2023/02/21 02:44:56;;;;;;;1.90;1.80;;;;;;;;;;4479876;28;20046;-56
2023/02/21 02:47:10;;;;;;;1.40;1.30;;;;;;;;;;4481224;28;20660;-56
2023/02/21 02:49:26;;;;;;;5.10;4.60;;;;;;;;;;4481546;28;20905;-57
2023/02/21 02:51:36;;;;;;;3.75;3.30;;;;;;;;;;4482155;28;20050;-56
2023/02/21 02:53:49;;;;;;;1.50;1.40;;;;;;;;;;4481584;28;20046;-56
2023/02/21 02:56:00;;;;;;;1.40;1.30;;;;;;;;;;4481367;28;20042;-57
2023/02/21 02:58:11;;;;;;;2.60;2.40;;;;;;;;;;4479448;28;20086;-57
2023/02/21 03:00:22;;;;;;;2.58;1.90;;;;;;;;;;4482355;28;20656;-56
2023/02/21 03:02:35;;;;;;;1.55;1.45;;;;;;;;;;4478951;28;20058;-57
2023/02/21 03:04:51;;;;;;;2.00;1.80;;;;;;;;;;4494412;28;20080;-56
2023/02/21 03:07:21;;;;;;;2.40;2.20;;;;;;;;;;4478599;28;20093;-56
2023/02/21 03:09:50;;;;;;;2.50;2.30;;;;;;;;;;4478335;28;20031;-57
2023/02/21 03:12:03;;;;;;;1.60;1.50;;;;;;;;;;4482667;28;20043;-56
2023/02/21 03:14:16;;;;;;;1.60;1.50;;;;;;;;;;4493122;28;20037;-56
2023/02/21 03:16:35;;;;;;;1.65;1.55;;;;;;;;;;4481390;28;20133;-57
2023/02/21 03:18:48;;;;;;;1.50;1.40;;;;;;;;;;4480011;28;20031;-56
2023/02/21 03:20:59;;;;;;;2.25;1.30;;;;;;;;;;4480211;28;20158;-57
2023/02/21 03:23:12;;;;;;;1.55;1.45;;;;;;;;;;4495886;28;20111;-56
2023/02/21 03:25:22;;;;;;;1.10;1.00;;;;;;;;;;4479277;28;20108;-57
2023/02/21 03:27:34;;;;;;;1.20;1.10;;;;;;;;;;4478314;28;20085;-56
2023/02/21 03:29:57;;;;;;;1.20;1.10;;;;;;;;;;4497900;28;20095;-55
2023/02/21 03:34:25;;;;;;;1.30;1.20;;;;;;;;;;4479560;28;20030;-56
2023/02/21 03:36:37;;;;;;;1.10;1.00;;;;;;;;;;4480010;28;20030;-55
2023/02/21 03:38:48;;;;;;;1.10;1.00;;;;;;;;;;4495911;28;20139;-56
2023/02/21 03:40:59;;;;;;;1.35;1.25;;;;;;;;;;4494837;28;20513;-56
2023/02/21 03:43:10;;;;;;;0.90;0.90;;;;;;;;;;4480935;28;20081;-56
2023/02/21 03:45:41;;;;;;;1.25;1.15;;;;;;;;;;4478870;28;20038;-56
2023/02/21 03:47:56;;;;;;;1.23;1.10;;;;;;;;;;4464229;28;20054;-55
2023/02/21 03:50:06;;;;;;;1.20;1.10;;;;;;;;;;4480709;28;20533;-56
2023/02/21 03:52:20;;;;;;;1.00;1.00;;;;;;;;;;4477944;28;20612;-56
2023/02/21 03:54:31;;;;;;;1.15;1.05;;;;;;;;;;4479726;28;20046;-55
2023/02/21 03:56:43;;;;;;;1.30;1.20;;;;;;;;;;4495524;28;20661;-56
2023/02/21 03:59:12;;;;;;;1.10;1.00;;;;;;;;;;4493855;28;20030;-56
2023/02/21 04:01:22;;;;;;;1.02;1.00;;;;;;;;;;4495232;28;20038;-56
2023/02/21 04:03:32;;;;;;;1.08;0.98;;;;;;;;;;4493706;28;20031;-56
2023/02/21 04:05:46;;;;;;;1.50;1.40;;;;;;;;;;4493786;28;20116;-56
2023/02/21 04:07:57;;;;;;;1.50;1.40;;;;;;;;;;4478572;28;20070;-56
2023/02/21 04:10:08;;;;;;;1.20;1.10;;;;;;;;;;4479344;28;20433;-56
2023/02/21 04:12:26;;;;;;;1.27;1.15;;;;;;;;;;4479847;28;20047;-55
2023/02/21 04:14:37;;;;;;;1.20;1.10;;;;;;;;;;4495638;28;20034;-56
2023/02/21 04:16:48;;;;;;;1.00;0.90;;;;;;;;;;4480381;28;20042;-56
2023/02/21 04:18:58;;;;;;;1.00;1.00;;;;;;;;;;4479303;28;20030;-56
2023/02/21 04:21:09;;;;;;;0.90;0.90;;;;;;;;;;4480427;28;20050;-55
2023/02/21 04:23:20;;;;;;;1.15;1.05;;;;;;;;;;4494366;28;20046;-56
2023/02/21 04:25:30;;;;;;;1.30;1.20;;;;;;;;;;4495629;28;20026;-56
2023/02/21 04:27:46;;;;;;;1.20;1.10;;;;;;;;;;4480356;28;20049;-56
2023/02/21 04:29:56;;;;;;;1.17;1.02;;;;;;;;;;4494610;28;20049;-57
2023/02/21 04:32:08;;;;;;;1.50;1.38;;;;;;;;;;4480688;28;20525;-56
2023/02/21 04:34:19;;;;;;;1.70;1.52;;;;;;;;;;4494516;28;20078;-55
2023/02/21 04:36:30;;;;;;;1.70;1.60;;;;;;;;;;4478046;28;20079;-56
2023/02/21 04:38:40;;;;;;;1.50;1.40;;;;;;;;;;4480548;28;20380;-56
2023/02/21 04:40:51;;;;;;;1.50;1.40;;;;;;;;;;4480742;28;20034;-56
2023/02/21 04:43:01;;;;;;;1.55;1.30;;;;;;;;;;4461379;28;20046;-55
2023/02/21 04:45:11;;;;;;;1.40;1.30;;;;;;;;;;4477957;28;20061;-56
2023/02/21 04:47:22;;;;;;;1.40;1.30;;;;;;;;;;4479953;28;20061;-56
2023/02/21 04:49:32;;;;;;;1.27;0.98;;;;;;;;;;4479472;28;20038;-56
2023/02/21 04:51:42;;;;;;;1.27;1.17;;;;;;;;;;4480992;28;20060;-57
2023/02/21 04:53:53;;;;;;;1.50;1.15;;;;;;;;;;4480846;28;20189;-57
2023/02/21 04:56:03;;;;;;;0.93;0.93;;;;;;;;;;4479707;28;20074;-56
2023/02/21 04:58:14;;;;;;;1.42;1.05;;;;;;;;;;4480534;28;20045;-57
2023/02/21 05:00:24;;;;;;;1.10;1.00;;;;;;;;;;4480235;28;20720;-56
2023/02/21 05:02:35;;;;;;;1.17;1.08;;;;;;;;;;4481154;28;20034;-56
2023/02/21 05:04:45;;;;;;;1.00;0.90;;;;;;;;;;4481683;28;20518;-56
2023/02/21 05:06:57;;;;;;;0.80;0.80;;;;;;;;;;4481848;28;20042;-57
2023/02/21 05:09:07;;;;;;;0.80;0.80;;;;;;;;;;4483411;28;20097;-56
2023/02/21 05:11:18;;;;;;;0.93;0.90;;;;;;;;;;4482459;28;20061;-55
2023/02/21 05:13:29;;;;;;;0.82;0.80;;;;;;;;;;4484069;28;20065;-56
2023/02/21 05:15:39;;;;;;;0.88;0.88;;;;;;;;;;4482366;28;20030;-56
2023/02/21 05:17:49;;;;;;;0.90;0.90;;;;;;;;;;4481901;28;20495;-56
2023/02/21 05:19:59;;;;;;;0.80;0.80;;;;;;;;;;4481272;28;20057;-55
2023/02/21 05:22:10;;;;;;;1.00;1.00;;;;;;;;;;4482691;28;20042;-56
2023/02/21 05:24:20;;;;;;;1.10;1.00;;;;;;;;;;4483361;28;20080;-56
2023/02/21 05:26:35;;;;;;;1.00;0.90;;;;;;;;;;4481859;28;20513;-56
2023/02/21 05:28:45;;;;;;;1.02;0.93;;;;;;;;;;4482809;28;20104;-56
2023/02/21 05:30:56;;;;;;;0.88;0.82;;;;;;;;;;4483434;28;20105;-56
2023/02/21 05:33:06;;;;;;;0.88;0.80;;;;;;;;;;4482811;28;20030;-56
2023/02/21 05:35:17;;;;;;;0.80;0.80;;;;;;;;;;4484024;28;20113;-55
2023/02/21 05:37:27;;;;;;;1.05;0.98;;;;;;;;;;4481686;28;20042;-54
2023/02/21 05:39:38;;;;;;;0.80;0.80;;;;;;;;;;4482451;28;20038;-54
2023/02/21 05:41:49;;;;;;;0.80;0.80;;;;;;;;;;4482803;28;20066;-57
2023/02/21 05:43:59;;;;;;;0.90;0.90;;;;;;;;;;4481713;28;20043;-56
2023/02/21 05:46:20;;;;;;;0.80;0.80;;;;;;;;;;4482840;28;20030;-55
2023/02/21 05:48:30;;;;;;;0.80;0.80;;;;;;;;;;4497820;28;20046;-56
2023/02/21 05:50:40;;;;;;;0.88;0.80;;;;;;;;;;4482254;28;20485;-56
2023/02/21 05:52:51;;;;;;;0.80;0.65;;;;;;;;;;4483565;28;20073;-55
2023/02/21 05:55:01;;;;;;;1.13;1.02;;;;;;;;;;4482384;28;20035;-56
2023/02/21 05:57:11;;;;;;;0.82;0.82;;;;;;;;;;4480920;28;20096;-55
2023/02/21 05:59:22;;;;;;;0.80;0.80;;;;;;;;;;4482122;28;20448;-55
2023/02/21 06:01:32;;;;;;;0.90;0.82;;;;;;;;;;4482547;28;20407;-55
2023/02/21 06:03:43;;;;;;;0.73;0.73;;;;;;;;;;4482710;28;20046;-56
2023/02/21 06:05:53;;;;;;;0.80;0.80;;;;;;;;;;4482988;28;20047;-56
2023/02/21 06:08:03;;;;;;;0.82;0.82;;;;;;;;;;4480817;28;20041;-57
2023/02/21 06:10:14;;;;;;;1.10;1.00;;;;;;;;;;4482490;28;20041;-55
2023/02/21 06:12:25;;;;;;;1.10;1.00;;;;;;;;;;4484656;28;21293;-55
2023/02/21 06:14:35;;;;;;;0.82;0.82;;;;;;;;;;4480678;28;20034;-57
2023/02/21 06:16:46;;;;;;;0.80;0.80;;;;;;;;;;4481110;28;20041;-55
2023/02/21 06:18:56;;;;;;;0.82;0.82;;;;;;;;;;4480016;28;20576;-56
2023/02/21 06:21:06;;;;;;;0.77;0.77;;;;;;;;;;4481267;28;20038;-55
2023/02/21 06:23:17;;;;;;;0.80;0.80;;;;;;;;;;4482217;28;20050;-55
2023/02/21 06:25:27;;;;;;;1.00;0.90;;;;;;;;;;4482847;28;20046;-56
2023/02/21 06:27:37;;;;;;;0.70;0.70;;;;;;;;;;4481430;28;20522;-55
2023/02/21 06:29:48;;;;;;;0.80;0.80;;;;;;;;;;4481998;28;20089;-56
2023/02/21 06:31:59;;;;;;;0.68;0.68;;;;;;;;;;4479296;28;20391;-55
2023/02/21 06:34:09;;;;;;;1.10;0.98;;;;;;;;;;4481002;28;20506;-56
2023/02/21 06:36:21;;;;;;;0.70;0.70;;;;;;;;;;4480418;28;20491;-56
2023/02/21 06:38:32;;;;;;;1.27;1.00;;;;;;;;;;4481415;28;20074;-56
2023/02/21 06:40:42;;;;;;;0.85;0.80;;;;;;;;;;4480628;28;20125;-56
2023/02/21 06:42:53;;;;;;;1.13;1.02;;;;;;;;;;4479331;28;20047;-57
2023/02/21 06:45:04;;;;;;;1.10;1.00;;;;;;;;;;4480947;28;20538;-57
2023/02/21 06:47:15;;;;;;;1.10;1.00;;;;;;;;;;4480355;28;20051;-56
2023/02/21 06:49:25;;;;;;;1.40;1.30;;;;;;;;;;4496221;28;20046;-57
2023/02/21 06:51:37;;;;;;;1.30;1.10;;;;;;;;;;4480519;28;20072;-57
2023/02/21 06:53:50;;;;;;;1.33;1.20;;;;;;;;;;4481674;28;20600;-60
2023/02/21 06:56:00;;;;;;;1.55;1.20;;;;;;;;;;4479616;28;20039;-57
2023/02/21 06:58:11;;;;;;;1.23;1.13;;;;;;;;;;4479720;28;20435;-58
2023/02/21 07:00:21;;;;;;;1.20;1.10;;;;;;;;;;4472797;28;20033;-57
2023/02/21 07:02:32;;;;;;;1.40;1.30;;;;;;;;;;4481433;28;20049;-57
2023/02/21 07:04:42;;;;;;;1.40;1.30;;;;;;;;;;4480597;28;20089;-56
2023/02/21 07:06:53;;;;;;;1.30;1.20;;;;;;;;;;4471410;28;20043;-56
2023/02/21 07:09:03;;;;;;;1.10;1.02;;;;;;;;;;4478887;28;20034;-57
2023/02/21 07:11:14;;;;;;;1.45;1.13;;;;;;;;;;4494444;28;20213;-58
2023/02/21 07:13:24;;;;;;;1.10;1.00;;;;;;;;;;4480794;28;20034;-56
2023/02/21 07:15:34;;;;;;;1.20;1.10;;;;;;;;;;4477443;28;20139;-56
2023/02/21 07:17:45;;;;;;;2.50;1.10;;;;;;;;;;4478122;28;20602;-57
2023/02/21 07:19:55;;;;;;;1.38;1.10;;;;;;;;;;4477547;28;20065;-56
2023/02/21 07:22:05;;;;;;;1.00;0.90;;;;;;;;;;4478772;28;20034;-57
2023/02/21 07:24:15;;;;;;;1.25;1.10;;;;;;;;;;4481130;28;20665;-56
2023/02/21 07:26:26;;;;;;;0.80;0.80;;;;;;;;;;4494344;28;20026;-56
2023/02/21 07:28:36;;;;;;;0.82;0.70;;;;;;;;;;4480175;28;20046;-56
2023/02/21 07:30:46;;;;;;;1.20;1.00;;;;;;;;;;4478940;28;20641;-56
2023/02/21 07:32:57;;;;;;;1.00;0.82;;;;;;;;;;4481309;28;20050;-56
2023/02/21 07:35:08;;;;;;;1.55;0.90;;;;;;;;;;4495065;28;20061;-57
2023/02/21 07:37:18;;;;;;;1.13;0.90;;;;;;;;;;4478551;28;20129;-57
2023/02/21 07:39:28;;;;;;;1.20;1.10;;;;;;;;;;4479624;28;20042;-56
2023/02/21 07:41:39;;;;;;;0.98;0.93;;;;;;;;;;4479510;28;20049;-56
2023/02/21 07:43:52;;;;;;;1.00;0.90;;;;;;;;;;4462243;28;20129;-56
2023/02/21 07:46:03;;;;;;;5.03;4.53;;;;;;;;;;4479747;28;20031;-58
2023/02/21 07:48:13;;;;;;;1.30;1.20;;;;;;;;;;4480139;28;20129;-56
2023/02/21 07:50:23;;;;;;;1.90;1.10;;;;;;;;;;4477317;28;20039;-58
2023/02/21 07:52:34;;;;;;;1.00;0.90;;;;;;;;;;4480586;28;20046;-56
2023/02/21 07:54:45;;;;;;;5.50;4.90;;;;;;;;;;4480337;28;20105;-56
2023/02/21 07:56:55;;;;;;;5.90;5.32;;;;;;;;;;4478100;28;20534;-56
2023/02/21 07:59:05;;;;;;;5.75;5.03;;;;;;;;;;4480725;28;20134;-57
2023/02/21 08:01:16;;;;;;;5.85;4.85;;;;;;;;;;4479263;28;20039;-57
2023/02/21 08:03:26;;;;;;;5.68;5.00;;;;;;;;;;4477067;28;20038;-57
2023/02/21 08:05:36;;;;;;;5.80;5.20;;;;;;;;;;4478061;28;20120;-60
2023/02/21 08:07:47;;;;;;;5.60;5.10;;;;;;;;;;4478038;28;20041;-61
2023/02/21 08:09:57;;;;;;;5.45;4.95;;;;;;;;;;4477860;28;20054;-60
2023/02/21 08:12:07;;;;;;;5.75;5.00;;;;;;;;;;4479334;28;20034;-61
2023/02/21 08:14:18;;;;;;;6.07;5.40;;;;;;;;;;4479992;28;20022;-61
2023/02/21 08:16:28;;;;;;;6.00;5.15;;;;;;;;;;4461601;28;20098;-61
2023/02/21 08:18:38;;;;;;;6.32;5.32;;;;;;;;;;4480332;28;20085;-60
2023/02/21 08:20:50;;;;;;;6.07;5.30;;;;;;;;;;4481239;28;20066;-61
2023/02/21 08:23:00;;;;;;;5.85;5.13;;;;;;;;;;4481520;28;20054;-60
2023/02/21 08:25:11;;;;;;;6.07;5.47;;;;;;;;;;4481434;28;20042;-61
2023/02/21 08:27:22;;;;;;;5.78;5.18;;;;;;;;;;4478811;28;20038;-60
2023/02/21 08:29:32;;;;;;;6.22;5.63;;;;;;;;;;4480621;28;20574;-61
2023/02/21 08:31:43;;;;;;;5.93;5.20;;;;;;;;;;4496199;28;20037;-62
2023/02/21 08:33:53;;;;;;;3.45;2.65;;;;;;;;;;4481719;28;20038;-61
2023/02/21 08:36:04;;;;;;;5.97;5.25;;;;;;;;;;4482966;28;20481;-61
2023/02/21 08:38:16;;;;;;;6.22;5.63;;;;;;;;;;4483453;28;20090;-61
2023/02/21 08:40:27;;;;;;;6.60;5.65;;;;;;;;;;4483877;28;20039;-61
2023/02/21 08:42:37;;;;;;;5.90;5.28;;;;;;;;;;4482412;28;20046;-61
2023/02/21 08:44:47;;;;;;;5.82;5.22;;;;;;;;;;4482792;28;20042;-61
2023/02/21 08:46:58;;;;;;;6.25;5.50;;;;;;;;;;4484543;28;21234;-61
2023/02/21 08:49:08;;;;;;;5.88;5.28;;;;;;;;;;4484469;28;20109;-61
2023/02/21 08:51:23;;;;;;;6.00;5.40;;;;;;;;;;4483560;28;20043;-61
2023/02/21 08:53:33;;;;;;;5.93;5.32;;;;;;;;;;4482445;28;20149;-61
2023/02/21 08:55:43;;;;;;;5.95;4.95;;;;;;;;;;4484385;28;20463;-61
2023/02/21 08:57:54;;;;;;;6.00;5.40;;;;;;;;;;4483346;28;20182;-60
2023/02/21 09:00:11;;;;;;;6.15;5.55;;;;;;;;;;4497708;28;20530;-61
2023/02/21 09:02:21;;;;;;;;;;;;;;;;;;4482978;28;20040;-61
2023/02/21 09:04:34;;;;;;;6.32;5.70;;;;;;;;;;4483966;28;20396;-61
2023/02/21 09:06:45;;;;;;;6.25;5.57;;;;;;;;;;4482706;28;20030;-62
2023/02/21 09:08:55;;;;;;;6.20;5.60;;;;;;;;;;4482054;28;20049;-57
2023/02/21 09:11:06;;;;;;;6.10;5.50;;;;;;;;;;4481302;28;20141;-56
2023/02/21 09:13:16;;;;;;;6.72;6.03;;;;;;;;;;4482842;28;20047;-57
2023/02/21 09:15:27;;;;;;;6.35;5.70;;;;;;;;;;4481496;28;20038;-56
2023/02/21 09:17:37;;;;;;;6.40;5.53;;;;;;;;;;4480972;28;20042;-57
2023/02/21 09:19:47;;;;;;;6.50;5.82;;;;;;;;;;4482022;28;20129;-57
2023/02/21 09:21:58;;;;;;;6.72;5.97;;;;;;;;;;4481267;28;20039;-57
2023/02/21 09:24:09;;;;;;;6.40;5.68;;;;;;;;;;4481992;28;20574;-57
2023/02/21 09:26:22;;;;;;;6.80;5.88;;;;;;;;;;4480933;28;20051;-57
2023/02/21 09:28:33;;;;;;;7.07;6.05;;;;;;;;;;4480689;28;20845;-57
2023/02/21 09:30:43;;;;;;;7.38;6.13;;;;;;;;;;4481350;28;20134;-56
2023/02/21 09:32:55;;;;;;;6.85;6.10;;;;;;;;;;4495665;28;20050;-56
2023/02/21 09:35:05;;;;;;;7.18;6.20;;;;;;;;;;4480841;28;20031;-57
2023/02/21 09:37:16;;;;;;;8.15;6.80;;;;;;;;;;4479645;28;20034;-56
2023/02/21 09:39:26;;;;;;;7.18;6.15;;;;;;;;;;4481866;28;20093;-56
2023/02/21 09:41:36;;;;;;;7.43;6.35;;;;;;;;;;4481832;28;20034;-56
2023/02/21 09:43:48;;;;;;;6.75;6.05;;;;;;;;;;4478874;28;20078;-56
2023/02/21 09:46:04;;;;;;;7.35;6.28;;;;;;;;;;4479589;28;20121;-56
2023/02/21 09:48:17;;;;;;;7.70;6.60;;;;;;;;;;4495279;28;20148;-57
2023/02/21 09:50:30;;;;;;;7.65;6.45;;;;;;;;;;4482460;28;20605;-56
2023/02/21 09:52:41;;;;;;;7.65;6.57;;;;;;;;;;4481211;28;20046;-56
2023/02/21 09:54:55;;;;;;;7.55;6.55;;;;;;;;;;4481704;28;20143;-57
2023/02/21 09:57:10;;;;;;;7.43;6.18;;;;;;;;;;4479744;28;20042;-57
2023/02/21 09:59:20;;;;;;;7.35;6.57;;;;;;;;;;4482212;28;20041;-56
2023/02/21 10:01:33;;;;;;;7.60;6.35;;;;;;;;;;4482775;28;20042;-56
2023/02/21 10:03:45;;;;;;;7.43;6.53;;;;;;;;;;4496505;28;20169;-56
2023/02/21 10:06:16;;;;;;;7.43;6.63;;;;;;;;;;4480764;28;20034;-56
2023/02/21 10:08:35;;;;;;;8.45;6.80;;;;;;;;;;4488827;28;20058;-56
2023/02/21 10:10:47;;;;;;;7.40;6.18;;;;;;;;;;4482484;28;20033;-56
2023/02/21 10:12:58;;;;;;;7.85;6.70;;;;;;;;;;4482378;28;20963;-56
2023/02/21 10:15:15;;;;;;;7.35;6.55;;;;;;;;;;4481162;28;20047;-56
2023/02/21 10:17:45;;;;;;;7.63;6.82;;;;;;;;;;4480791;28;20043;-56
2023/02/21 10:19:59;;;;;;;8.20;6.85;;;;;;;;;;4478858;28;20046;-56
2023/02/21 10:22:18;;;;;;;7.70;6.35;;;;;;;;;;4481600;28;20663;-55
2023/02/21 10:24:29;;;;;;;7.60;6.68;;;;;;;;;;4479839;28;20401;-57
2023/02/21 10:26:41;;;;;;;7.95;6.90;;;;;;;;;;4480661;28;20050;-57
2023/02/21 10:28:52;;;;;;;7.45;6.25;;;;;;;;;;4482088;28;20519;-57
2023/02/21 10:31:15;;;;;;;7.50;6.68;;;;;;;;;;4482226;28;20467;-59
2023/02/21 10:33:26;;;;;;;7.32;6.40;;;;;;;;;;4480376;28;20043;-56
2023/02/21 10:35:37;;;;;;;7.72;6.72;;;;;;;;;;4478672;28;20030;-59
2023/02/21 10:37:50;;;;;;;6.78;5.95;;;;;;;;;;4460523;28;20031;-57
2023/02/21 10:40:19;;;;;;;12.13;10.93;;;;;;;;;;4464557;28;20145;-59
2023/02/21 10:42:30;;;;;;;7.65;6.47;;;;;;;;;;4496869;28;20149;-61
2023/02/21 10:44:40;;;;;;;8.27;7.00;;;;;;;;;;4496576;28;20476;-55
2023/02/21 10:46:53;;;;;;;7.97;6.32;;;;;;;;;;4494772;28;20049;-55
2023/02/21 10:49:23;;;;;;;8.15;6.68;;;;;;;;;;4480571;28;20109;-55
2023/02/21 10:51:34;;;;;;;8.02;6.82;;;;;;;;;;4482627;28;20073;-55
2023/02/21 10:53:45;;;;;;;9.40;7.63;;;;;;;;;;4481079;28;20050;-55
2023/02/21 10:56:05;;;;;;;9.00;7.10;;;;;;;;;;4482395;28;20042;-56
2023/02/21 10:58:21;;;;;;;8.70;7.20;;;;;;;;;;4480832;28;20034;-55
2023/02/21 11:00:33;;;;;;;9.18;7.80;;;;;;;;;;4483148;28;20026;-56
2023/02/21 11:02:48;;;;;;;8.82;6.97;;;;;;;;;;4479699;28;20098;-55
2023/02/21 11:05:18;;;;;;;10.82;9.52;;;;;;;;;;4481064;28;20042;-58
2023/02/21 11:07:28;;;;;;;8.57;7.28;;;;;;;;;;4481570;28;20717;-58
2023/02/21 11:09:46;;;;;;;8.07;7.00;;;;;;;;;;4479227;28;20031;-58
2023/02/21 11:12:15;;;;;;;8.65;7.40;;;;;;;;;;4478092;28;20041;-58
2023/02/21 11:14:25;;;;;;;7.43;6.50;;;;;;;;;;4480942;28;20030;-60
2023/02/21 11:16:35;;;;;;;7.22;6.47;;;;;;;;;;4480848;28;20042;-62
2023/02/21 11:18:46;;;;;;;6.70;6.00;;;;;;;;;;4478761;28;20027;-61
2023/02/21 11:21:08;;;;;;;7.13;6.07;;;;;;;;;;4477804;28;20042;-59
2023/02/21 11:23:30;;;;;;;7.07;6.38;;;;;;;;;;4481306;28;20749;-60
2023/02/21 11:25:40;;;;;;;8.88;6.20;;;;;;;;;;4481028;28;20638;-62
2023/02/21 11:28:26;;;;;;;17.13;9.77;;;;;;;;;;4480618;28;20149;-61
2023/02/21 11:30:38;;;;;;;6.45;5.63;;;;;;;;;;4461071;28;20195;-60
2023/02/21 11:32:50;;;;;;;7.57;6.45;;;;;;;;;;4472363;28;20054;-58
2023/02/21 11:35:20;;;;;;;6.45;5.70;;;;;;;;;;4482428;28;20630;-58
2023/02/21 11:37:31;;;;;;;6.63;5.57;;;;;;;;;;4478421;28;20042;-58
2023/02/21 11:39:48;;;;;;;6.88;5.80;;;;;;;;;;4478304;28;20039;-58
2023/02/21 11:42:02;;;;;;;6.60;5.90;;;;;;;;;;4480189;28;20047;-59
2023/02/21 11:44:28;;;;;;;6.60;5.57;;;;;;;;;;4481181;28;20652;-60
2023/02/21 11:46:45;;;;;;;7.43;6.00;;;;;;;;;;4496399;28;20647;-58
2023/02/21 11:49:00;;;;;;;6.70;5.90;;;;;;;;;;4479280;28;20535;-58
2023/02/21 11:51:20;;;;;;;6.80;5.85;;;;;;;;;;4478105;28;20726;-58
2023/02/21 11:53:33;;;;;;;6.70;5.57;;;;;;;;;;4481247;28;20054;-58
2023/02/21 11:55:56;;;;;;;19.55;16.17;;;;;;;;;;4478847;28;20647;-58
2023/02/21 11:58:09;;;;;;;11.32;9.57;;;;;;;;;;4480692;28;21067;-58
2023/02/21 12:00:23;;;;;;;6.00;5.40;;;;;;;;;;4480951;28;20108;-57
2023/02/21 12:02:41;;;;;;;5.97;5.28;;;;;;;;;;4480612;28;20027;-57
2023/02/21 12:04:51;;;;;;;6.18;5.55;;;;;;;;;;4480904;28;20034;-58
2023/02/21 12:07:11;;;;;;;6.65;5.75;;;;;;;;;;4479985;28;20038;-57
2023/02/21 12:09:25;;;;;;;8.73;6.10;;;;;;;;;;4485881;28;20026;-57
2023/02/21 12:11:53;;;;;;;6.30;5.60;;;;;;;;;;4485027;28;20049;-58
2023/02/21 12:14:19;;;;;;;7.85;6.22;;;;;;;;;;4485764;28;20318;-58
2023/02/21 12:16:48;;;;;;;7.20;6.22;;;;;;;;;;4484638;28;20046;-57
2023/02/21 12:19:13;;;;;;;7.90;6.25;;;;;;;;;;4485238;28;20609;-57
2023/02/21 12:21:43;;;;;;;7.55;6.53;;;;;;;;;;4501762;28;20069;-59
2023/02/21 12:23:56;;;;;;;7.57;6.07;;;;;;;;;;4484531;28;20530;-56
2023/02/21 12:26:18;;;;;;;20.73;18.73;;;;;;;;;;4485471;28;20088;-57
2023/02/21 12:28:28;;;;;;;20.20;18.20;;;;;;;;;;4500334;28;20127;-58
2023/02/21 12:30:51;;;;;;;19.50;17.70;;;;;;;;;;4485863;28;20097;-57
2023/02/21 12:33:19;;;;;;;20.58;18.48;;;;;;;;;;4486385;28;20043;-58
2023/02/21 12:35:49;;;;;;;19.65;17.75;;;;;;;;;;4485448;28;20133;-57
2023/02/21 12:38:31;;;;;;;18.98;17.17;;;;;;;;;;4484881;28;20817;-57
2023/02/21 12:40:57;;;;;;;19.02;17.13;;;;;;;;;;4462052;28;20054;-58
2023/02/21 12:43:13;;;;;;;20.35;18.35;;;;;;;;;;4485774;28;20050;-58
2023/02/21 12:45:31;;;;;;;20.40;18.50;;;;;;;;;;4484410;28;20050;-58
2023/02/21 12:47:41;;;;;;;19.10;17.45;;;;;;;;;;4486145;28;20034;-58
2023/02/21 12:49:57;;;;;;;19.77;17.88;;;;;;;;;;4486632;28;20487;-58
2023/02/21 12:52:26;;;;;;;20.07;18.20;;;;;;;;;;4484430;28;20042;-59
2023/02/21 12:54:39;;;;;;;20.08;18.27;;;;;;;;;;4486106;28;20096;-61
2023/02/21 12:56:57;;;;;;;20.35;18.40;;;;;;;;;;4485673;28;20491;-61
2023/02/21 12:59:07;;;;;;;5.53;4.93;;;;;;;;;;4485855;28;20567;-59
2023/02/21 13:01:20;;;;;;;6.65;5.75;;;;;;;;;;4483837;28;20030;-58
2023/02/21 13:03:44;;;;;;;6.32;5.32;;;;;;;;;;4486185;28;20050;-63
2023/02/21 13:06:01;;;;;;;6.35;5.68;;;;;;;;;;4485688;28;20030;-59
2023/02/21 13:08:26;;;;;;;6.15;5.35;;;;;;;;;;4486385;28;20675;-58
2023/02/21 13:10:55;;;;;;;6.25;5.18;;;;;;;;;;4483313;28;20038;-58
2023/02/21 13:13:11;;;;;;;5.97;5.20;;;;;;;;;;4501246;28;20041;-57
2023/02/21 13:15:22;;;;;;;5.65;5.05;;;;;;;;;;4483043;28;20030;-58
2023/02/21 13:17:33;;;;;;;5.70;5.10;;;;;;;;;;4484530;28;20096;-58
2023/02/21 13:19:52;;;;;;;6.10;5.38;;;;;;;;;;4484021;28;20096;-58
2023/02/21 13:25:19;;;;;;;6.47;4.72;;;;;;;;;;4478459;28;20054;-58
2023/02/21 13:27:41;;;;;;;4.97;4.47;;;;;;;;;;4497070;28;20063;-59
2023/02/21 13:29:51;;;;;;;4.95;4.45;;;;;;;;;;4480412;28;20069;-56
2023/02/21 13:32:04;;;;;;;5.53;4.60;;;;;;;;;;4480301;28;20031;-57
2023/02/21 13:34:18;;;;;;;6.65;4.95;;;;;;;;;;4481672;28;20044;-57
2023/02/21 13:36:37;;;;;;;6.32;4.93;;;;;;;;;;4481210;28;20161;-58
2023/02/21 13:39:06;;;;;;;5.57;4.90;;;;;;;;;;4496465;28;20038;-57
2023/02/21 13:41:16;;;;;;;6.57;5.22;;;;;;;;;;4480496;28;20038;-58
2023/02/21 13:43:28;;;;;;;5.30;4.70;;;;;;;;;;4480436;28;20070;-58
2023/02/21 13:45:38;;;;;;;5.15;4.43;;;;;;;;;;4481652;28;20035;-58
2023/02/21 13:47:52;;;;;;;5.00;4.50;;;;;;;;;;4480557;28;20030;-59
2023/02/21 13:50:22;;;;;;;5.35;4.55;;;;;;;;;;4496490;28;20034;-59
2023/02/21 13:52:34;;;;;;;5.25;4.68;;;;;;;;;;4483008;28;20038;-58
2023/02/21 13:55:03;;;;;;;4.85;4.35;;;;;;;;;;4482064;28;20038;-59
2023/02/21 13:57:29;;;;;;;4.97;4.47;;;;;;;;;;4481367;28;20033;-58
2023/02/21 13:59:40;;;;;;;4.68;4.18;;;;;;;;;;4482542;28;20101;-56
2023/02/21 14:01:51;;;;;;;5.35;4.55;;;;;;;;;;4482047;28;20058;-59
2023/02/21 14:04:21;;;;;;;4.35;3.80;;;;;;;;;;4481222;28;20034;-58
2023/02/21 14:06:37;;;;;;;5.70;4.70;;;;;;;;;;4478217;28;20035;-57
2023/02/21 14:08:48;;;;;;;4.80;4.30;;;;;;;;;;4480454;28;20046;-58
2023/02/21 14:10:58;;;;;;;4.80;4.30;;;;;;;;;;4481553;28;20531;-58
2023/02/21 14:13:23;;;;;;;4.65;4.13;;;;;;;;;;4480453;28;20041;-56
2023/02/21 14:15:57;;;;;;;4.82;4.00;;;;;;;;;;4480899;28;20042;-58
2023/02/21 14:18:26;;;;;;;4.20;3.80;;;;;;;;;;4479128;28;20581;-61
2023/02/21 14:20:37;;;;;;;4.20;3.80;;;;;;;;;;4481168;28;20165;-60
2023/02/21 14:22:49;;;;;;;4.85;4.35;;;;;;;;;;4465598;28;20046;-59
2023/02/21 14:25:20;;;;;;;4.90;4.40;;;;;;;;;;4480631;28;20030;-59
2023/02/21 14:27:31;;;;;;;4.13;3.72;;;;;;;;;;4463244;28;20054;-59
2023/02/21 14:30:05;;;;;;;4.32;3.65;;;;;;;;;;4483135;28;20088;-60
2023/02/21 14:32:24;;;;;;;4.72;4.15;;;;;;;;;;4483400;28;20085;-61
2023/02/21 14:35:04;;;;;;;5.07;4.50;;;;;;;;;;4464228;28;20110;-59
2023/02/21 14:37:34;;;;;;;4.97;4.10;;;;;;;;;;4496516;28;20053;-59
2023/02/21 14:39:50;;;;;;;4.40;3.90;;;;;;;;;;4496395;28;20100;-59
2023/02/21 14:42:16;;;;;;;4.20;3.80;;;;;;;;;;4482328;28;20706;-59
2023/02/21 14:44:34;;;;;;;5.00;3.97;;;;;;;;;;4480684;28;21231;-59
2023/02/21 14:46:50;;;;;;;4.40;3.90;;;;;;;;;;4481685;28;20106;-60
2023/02/21 14:49:00;;;;;;;4.40;3.95;;;;;;;;;;4457790;28;20636;-58
2023/02/21 14:51:29;;;;;;;4.38;3.83;;;;;;;;;;4481035;28;20568;-57
2023/02/21 14:53:58;;;;;;;4.03;3.63;;;;;;;;;;4473241;28;20046;-58
2023/02/21 14:56:22;;;;;;;4.60;4.00;;;;;;;;;;4469940;28;20047;-58
2023/02/21 14:58:51;;;;;;;3.33;3.03;;;;;;;;;;4483403;28;20032;-62
2023/02/21 15:01:07;;;;;;;4.20;3.70;;;;;;;;;;4484610;28;20149;-64
2023/02/21 15:03:20;;;;;;;4.03;3.63;;;;;;;;;;4493800;28;20046;-65
2023/02/21 15:05:39;;;;;;;3.90;3.50;;;;;;;;;;4493693;28;20138;-64
2023/02/21 15:07:54;;;;;;;4.03;3.63;;;;;;;;;;4480909;28;20038;-61
2023/02/21 15:10:10;;;;;;;4.22;3.72;;;;;;;;;;4484415;28;20247;-66
2023/02/21 15:12:21;;;;;;;4.13;3.70;;;;;;;;;;4493182;28;20050;-62
2023/02/21 15:14:35;;;;;;;4.70;3.83;;;;;;;;;;4493123;28;20046;-60
2023/02/21 15:16:46;;;;;;;4.32;3.90;;;;;;;;;;4481748;28;20077;-60
2023/02/21 15:18:58;;;;;;;4.18;3.78;;;;;;;;;;4483222;28;20118;-61
2023/02/21 15:21:09;;;;;;;3.95;3.55;;;;;;;;;;4482003;28;20101;-60
2023/02/21 15:23:28;;;;;;;4.45;3.83;;;;;;;;;;4497988;28;20104;-60
2023/02/21 15:25:39;;;;;;;4.35;3.95;;;;;;;;;;4482399;28;20624;-59
2023/02/21 15:27:49;;;;;;;3.70;3.33;;;;;;;;;;4480123;28;20494;-61
2023/02/21 15:30:13;;;;;;;3.80;3.40;;;;;;;;;;4474195;28;20064;-60
2023/02/21 15:32:23;;;;;;;3.80;3.40;;;;;;;;;;4481703;28;20093;-60
2023/02/21 15:34:33;;;;;;;4.60;3.60;;;;;;;;;;4481747;28;20410;-57
2023/02/21 15:36:50;;;;;;;3.97;3.40;;;;;;;;;;4464647;28;20109;-59
2023/02/21 15:39:03;;;;;;;3.40;2.92;;;;;;;;;;4450033;28;20133;-60
2023/02/21 15:41:17;;;;;;;3.67;3.13;;;;;;;;;;4479002;28;20050;-60
2023/02/21 15:43:33;;;;;;;3.40;3.00;;;;;;;;;;4479619;28;20522;-58
2023/02/21 15:45:45;;;;;;;3.22;2.90;;;;;;;;;;4495842;28;20791;-60